Keimoes, South Africa
Current Conditions -  °F | °C
As of 12:00 PM on Sunday 23 Nov 2014 (Local Time) from FAUP Reporting Station
Few Clouds Few Clouds  
Wind Chill: 86°   Ceiling: Unl
Heat Index: 86°   Visibility: 6mi
Dew Point: 43°   Wind: 8mph
Humidity: 22%   Direction: 310°NW
Pressure: 30"   Gusts: NA
Location:  28.71°S, 20.98°E
Report Text: FAUP 231000Z 31007KT 9999 FEW050 30/06 Q1016 NOSIG
Loading
Personal Weather Stations






























Interactive Weather Map New forecast layout! Learn more

10-Day Weather Forecast

Advertisements
Track Severe Weather on mobile